Time;durP1;ratioP1;P1;durP2;ratioP2;P2;SDS_P1;SDS_P2;PMS_P1;PMS_P2;Temp;Humidity;BMP_temperature;BMP_pressure;BME280_temperature;BME280_humidity;BME280_pressure;Samples;Min_cycle;Max_cycle;Signal;HPM_P1;HPM_P2
2022/12/31 00:02:02;;;;;;;;;;;28.60;96.60;;;;;;5029147;28;19928;-76
2022/12/31 00:04:28;;;;;;;;;;;28.60;97.10;;;;;;5023753;28;19913;-73
2022/12/31 00:06:55;;;;;;;;;;;28.50;97.00;;;;;;5030046;28;19924;-72
2022/12/31 00:09:22;;;;;;;;;;;28.50;97.00;;;;;;5028756;28;19967;-75
2022/12/31 00:11:48;;;;;;;;;;;28.60;96.50;;;;;;5023957;28;19936;-72
2022/12/31 00:14:15;;;;;;;;;;;28.60;96.60;;;;;;5027381;28;19917;-72
2022/12/31 00:16:42;;;;;;;;;;;28.50;96.90;;;;;;5023065;28;19913;-73
2022/12/31 00:19:10;;;;;;;;;;;28.60;96.80;;;;;;5024355;28;20271;-74
2022/12/31 00:21:38;;;;;;;;;;;28.70;96.30;;;;;;5028368;28;20016;-73
2022/12/31 00:24:05;;;;;;;;;;;29.10;95.50;;;;;;5024657;28;19921;-74
2022/12/31 00:26:33;;;;;;;;;;;29.20;95.10;;;;;;5028252;28;19913;-74
2022/12/31 00:29:02;;;;;;;;;;;29.30;94.60;;;;;;5027134;28;19913;-75
2022/12/31 00:31:33;;;;;;;;;;;29.40;95.00;;;;;;5018362;28;20405;-73
2022/12/31 00:34:00;;;;;;;;;;;29.40;94.70;;;;;;5012229;28;20011;-76
2022/12/31 00:36:28;;;;;;;;;;;29.70;95.50;;;;;;5020457;28;19937;-75
2022/12/31 00:38:55;;;;;;;;;;;30.20;94.40;;;;;;5024347;28;20328;-73
2022/12/31 00:41:23;;;;;;;;;;;30.30;93.80;;;;;;5025034;28;19932;-75
2022/12/31 00:43:50;;;;;;;;;;;30.10;93.60;;;;;;5026095;28;19913;-74
2022/12/31 00:46:17;;;;;;;;;;;29.80;93.90;;;;;;5020495;28;19972;-74
2022/12/31 00:48:44;;;;;;;;;;;29.50;94.30;;;;;;5023775;28;19932;-74
2022/12/31 00:51:12;;;;;;;;;;;29.20;95.00;;;;;;5029331;28;20007;-74
2022/12/31 00:53:40;;;;;;;;;;;29.10;95.00;;;;;;5027426;28;20329;-73
2022/12/31 00:56:09;;;;;;;;;;;29.00;94.50;;;;;;5025594;28;20283;-73
2022/12/31 00:58:36;;;;;;;;;;;29.00;94.70;;;;;;5017740;28;19921;-74
2022/12/31 01:01:14;;;;;;;;;;;29.10;94.60;;;;;;5022363;28;19925;-73
2022/12/31 01:03:41;;;;;;;;;;;29.20;94.50;;;;;;5021854;28;19913;-74
2022/12/31 01:06:08;;;;;;;;;;;29.10;94.10;;;;;;5028679;28;20007;-74
2022/12/31 01:08:35;;;;;;;;;;;29.20;94.00;;;;;;5028092;28;20280;-75
2022/12/31 01:13:50;;;;;;;;;;;29.60;94.30;;;;;;5030153;28;20056;-73
2022/12/31 01:16:17;;;;;;;;;;;29.60;94.50;;;;;;5014078;28;20036;-75
2022/12/31 01:18:44;;;;;;;;;;;29.70;93.70;;;;;;5023585;28;20379;-75
2022/12/31 01:21:11;;;;;;;;;;;29.60;93.90;;;;;;5031015;28;19929;-77
2022/12/31 01:23:38;;;;;;;;;;;29.50;94.20;;;;;;5027596;28;19921;-74
2022/12/31 01:26:06;;;;;;;;;;;29.40;94.10;;;;;;5033706;28;20008;-74
2022/12/31 01:28:32;;;;;;;;;;;29.50;94.20;;;;;;5025918;28;19920;-74
2022/12/31 01:31:02;;;;;;;;;;;29.50;94.20;;;;;;5025755;28;20020;-74
2022/12/31 01:33:29;;;;;;;;;;;29.50;94.50;;;;;;5024399;28;19913;-72
2022/12/31 01:36:00;;;;;;;;;;;29.40;94.30;;;;;;5025236;28;19913;-74
2022/12/31 01:38:27;;;;;;;;;;;29.20;94.10;;;;;;5022611;28;20251;-75
2022/12/31 01:40:54;;;;;;;;;;;28.90;94.20;;;;;;5026088;28;19921;-75
2022/12/31 01:43:20;;;;;;;;;;;28.70;94.80;;;;;;5030614;28;19917;-74
2022/12/31 01:45:52;;;;;;;;;;;28.50;95.10;;;;;;5025529;28;20363;-72
2022/12/31 01:48:24;;;;;;;;;;;28.30;95.60;;;;;;5023563;28;19920;-72
2022/12/31 01:50:53;;;;;;;;;;;28.10;95.80;;;;;;5024186;28;19917;-74
2022/12/31 01:53:20;;;;;;;;;;;27.90;96.10;;;;;;5027849;28;19914;-74
2022/12/31 01:55:49;;;;;;;;;;;27.70;96.40;;;;;;5025811;28;19924;-73
2022/12/31 01:58:18;;;;;;;;;;;27.60;96.80;;;;;;5023528;28;20588;-74
2022/12/31 02:00:45;;;;;;;;;;;27.50;96.60;;;;;;5008143;28;20023;-75
2022/12/31 02:03:12;;;;;;;;;;;27.40;96.90;;;;;;5024424;28;20299;-74
2022/12/31 02:05:51;;;;;;;;;;;27.30;97.10;;;;;;5024684;28;19920;-75
2022/12/31 02:08:17;;;;;;;;;;;27.20;97.10;;;;;;5018380;28;19917;-74
2022/12/31 02:10:44;;;;;;;;;;;27.10;97.30;;;;;;5024789;28;19913;-73
2022/12/31 02:13:11;;;;;;;;;;;27.00;97.50;;;;;;5019558;28;19932;-74
2022/12/31 02:15:38;;;;;;;;;;;27.00;97.80;;;;;;5027676;28;19913;-74
2022/12/31 02:18:11;;;;;;;;;;;27.00;97.80;;;;;;5024553;28;20287;-73
2022/12/31 02:20:40;;;;;;;;;;;27.10;98.00;;;;;;5025479;28;19921;-74
2022/12/31 02:23:18;;;;;;;;;;;27.10;97.70;;;;;;5019268;28;20027;-73
2022/12/31 02:26:20;;;;;;;;;;;27.10;98.00;;;;;;5019506;28;19986;-73
2022/12/31 02:28:50;;;;;;;;;;;27.10;98.20;;;;;;4942432;28;20337;-74
2022/12/31 02:31:19;;;;;;;;;;;27.10;98.10;;;;;;5003759;28;19967;-73
2022/12/31 02:34:01;;;;;;;;;;;27.10;98.20;;;;;;5018234;28;19913;-73
2022/12/31 02:36:32;;;;;;;;;;;27.10;98.00;;;;;;5022800;28;19963;-73
2022/12/31 02:39:00;;;;;;;;;;;27.20;98.30;;;;;;5019736;28;19944;-73
2022/12/31 02:44:29;;;;;;;;;;;27.50;98.20;;;;;;5018308;28;20445;-74
2022/12/31 02:47:07;;;;;;;;;;;27.60;98.20;;;;;;5020127;28;20382;-74
2022/12/31 02:50:02;;;;;;;;;;;27.70;98.20;;;;;;5020187;28;19966;-74
2022/12/31 02:52:38;;;;;;;;;;;27.60;98.30;;;;;;5019396;28;19928;-73
2022/12/31 02:55:10;;;;;;;;;;;27.60;98.40;;;;;;5020593;28;19924;-74
2022/12/31 02:57:43;;;;;;;;;;;27.30;98.90;;;;;;5015143;28;20004;-72
2022/12/31 03:02:58;;;;;;;;;;;27.10;99.10;;;;;;5020945;28;19932;-73
2022/12/31 03:05:26;;;;;;;;;;;27.00;99.20;;;;;;5023816;28;20299;-74
2022/12/31 03:07:53;;;;;;;;;;;26.90;98.60;;;;;;5013362;28;19960;-72
2022/12/31 03:10:20;;;;;;;;;;;26.80;98.90;;;;;;5024976;28;20351;-72
2022/12/31 03:12:47;;;;;;;;;;;26.70;99.10;;;;;;5021737;28;20624;-74
2022/12/31 03:15:19;;;;;;;;;;;26.80;99.10;;;;;;5023963;28;19979;-73
2022/12/31 03:17:47;;;;;;;;;;;26.80;99.20;;;;;;5015870;28;20217;-73
2022/12/31 03:22:59;;;;;;;;;;;26.70;99.30;;;;;;5023336;28;19936;-73
2022/12/31 03:25:34;;;;;;;;;;;26.70;99.60;;;;;;5022627;28;19913;-72
2022/12/31 03:28:02;;;;;;;;;;;26.60;99.90;;;;;;5024853;28;19940;-71
2022/12/31 03:30:29;;;;;;;;;;;26.50;99.90;;;;;;5021299;28;19913;-72
2022/12/31 03:32:56;;;;;;;;;;;26.70;99.90;;;;;;5024095;28;19917;-73
2022/12/31 03:35:24;;;;;;;;;;;26.70;99.60;;;;;;5027658;28;19943;-72
2022/12/31 03:37:51;;;;;;;;;;;26.60;99.50;;;;;;5030892;28;20003;-73
2022/12/31 03:40:18;;;;;;;;;;;26.60;99.70;;;;;;5025671;28;19920;-73
2022/12/31 03:42:45;;;;;;;;;;;27.00;99.80;;;;;;5025667;28;20291;-73
2022/12/31 03:45:12;;;;;;;;;;;27.50;99.10;;;;;;5026474;28;19918;-73
2022/12/31 03:47:39;;;;;;;;;;;27.90;98.60;;;;;;5022958;28;19921;-75
2022/12/31 03:50:07;;;;;;;;;;;28.20;98.00;;;;;;5023032;28;20012;-74
2022/12/31 03:52:34;;;;;;;;;;;28.40;97.40;;;;;;5024696;28;20283;-75
2022/12/31 03:55:01;;;;;;;;;;;28.70;97.30;;;;;;5026500;28;20015;-75
2022/12/31 03:57:28;;;;;;;;;;;28.60;97.30;;;;;;5007218;28;19922;-73
2022/12/31 03:59:55;;;;;;;;;;;28.50;97.20;;;;;;5021751;28;19913;-74
2022/12/31 04:02:21;;;;;;;;;;;28.10;97.10;;;;;;5026055;28;20400;-74
2022/12/31 04:04:48;;;;;;;;;;;27.70;97.80;;;;;;5024769;28;20294;-74
2022/12/31 04:07:14;;;;;;;;;;;27.60;98.50;;;;;;5026830;28;20379;-74
2022/12/31 04:09:41;;;;;;;;;;;27.60;98.50;;;;;;5022365;28;19913;-75
2022/12/31 04:12:08;;;;;;;;;;;27.80;98.50;;;;;;5021191;28;19956;-74
2022/12/31 04:14:34;;;;;;;;;;;28.10;98.30;;;;;;5022980;28;19917;-76
2022/12/31 04:17:01;;;;;;;;;;;28.20;98.00;;;;;;5020207;28;20383;-75
2022/12/31 04:19:28;;;;;;;;;;;28.40;97.80;;;;;;5023807;28;19921;-74
2022/12/31 04:21:54;;;;;;;;;;;28.40;97.50;;;;;;5023159;28;20359;-72
2022/12/31 04:24:21;;;;;;;;;;;28.20;97.80;;;;;;5029206;28;19920;-73
2022/12/31 04:26:48;;;;;;;;;;;28.00;97.80;;;;;;5024984;28;20449;-74
2022/12/31 04:29:14;;;;;;;;;;;27.80;98.50;;;;;;5026779;28;19937;-73
2022/12/31 04:31:41;;;;;;;;;;;27.70;98.60;;;;;;5029083;28;19979;-74
2022/12/31 04:34:08;;;;;;;;;;;27.50;98.80;;;;;;5027791;28;19947;-73
2022/12/31 04:36:35;;;;;;;;;;;27.40;98.80;;;;;;5029753;28;20020;-72
2022/12/31 04:39:01;;;;;;;;;;;27.40;98.80;;;;;;5027412;28;19972;-74
2022/12/31 04:41:28;;;;;;;;;;;27.40;98.90;;;;;;5031263;28;20402;-74
2022/12/31 04:43:56;;;;;;;;;;;27.40;98.80;;;;;;5020318;28;19920;-74
2022/12/31 04:46:24;;;;;;;;;;;27.40;98.50;;;;;;5027648;28;20024;-74
2022/12/31 04:48:51;;;;;;;;;;;27.30;98.20;;;;;;5029108;28;20391;-74
2022/12/31 04:51:17;;;;;;;;;;;27.40;98.60;;;;;;5033556;28;20283;-74
2022/12/31 04:53:44;;;;;;;;;;;27.60;98.10;;;;;;5025148;28;19956;-72
2022/12/31 04:56:11;;;;;;;;;;;27.80;98.20;;;;;;5026236;28;20390;-73
2022/12/31 04:58:38;;;;;;;;;;;28.10;97.70;;;;;;5025419;28;19913;-75
2022/12/31 05:01:05;;;;;;;;;;;28.50;97.20;;;;;;5018788;28;19975;-71
2022/12/31 05:03:32;;;;;;;;;;;28.80;96.40;;;;;;5024659;28;19917;-75
2022/12/31 05:06:02;;;;;;;;;;;28.90;96.20;;;;;;5018428;28;19913;-71
2022/12/31 05:08:29;;;;;;;;;;;28.80;96.10;;;;;;5022663;28;20387;-73
2022/12/31 05:10:56;;;;;;;;;;;28.60;96.40;;;;;;5019516;28;20461;-71
2022/12/31 05:13:23;;;;;;;;;;;28.30;96.60;;;;;;5023706;28;19921;-73
2022/12/31 05:15:50;;;;;;;;;;;28.10;96.50;;;;;;5023887;28;20332;-71
2022/12/31 05:18:18;;;;;;;;;;;28.10;96.70;;;;;;5021108;28;20356;-72
2022/12/31 05:20:45;;;;;;;;;;;28.00;96.50;;;;;;5030374;28;20467;-73
2022/12/31 05:23:12;;;;;;;;;;;27.90;96.60;;;;;;5028328;28;19925;-73
2022/12/31 05:25:39;;;;;;;;;;;27.80;96.70;;;;;;5029647;28;19923;-73
2022/12/31 05:28:05;;;;;;;;;;;27.60;96.70;;;;;;5026651;28;19917;-72
2022/12/31 05:30:32;;;;;;;;;;;27.50;97.20;;;;;;5026421;28;20360;-72
2022/12/31 05:32:59;;;;;;;;;;;27.50;97.10;;;;;;5025747;28;19913;-72
2022/12/31 05:35:26;;;;;;;;;;;27.50;97.20;;;;;;5026756;28;19920;-71
2022/12/31 05:37:52;;;;;;;;;;;27.60;97.50;;;;;;5028495;28;19914;-72
2022/12/31 05:40:19;;;;;;;;;;;27.60;97.40;;;;;;5018931;28;19909;-70
2022/12/31 05:42:46;;;;;;;;;;;27.50;97.20;;;;;;5024640;28;20048;-71
2022/12/31 05:45:12;;;;;;;;;;;27.50;97.40;;;;;;5023624;28;19952;-71
2022/12/31 05:47:40;;;;;;;;;;;27.40;97.50;;;;;;5027368;28;19956;-70
2022/12/31 05:50:07;;;;;;;;;;;27.30;97.70;;;;;;5030146;28;19913;-71
2022/12/31 05:52:34;;;;;;;;;;;27.40;97.70;;;;;;5025014;28;19925;-71
2022/12/31 05:55:01;;;;;;;;;;;27.50;97.40;;;;;;5028896;28;19968;-72
2022/12/31 05:57:28;;;;;;;;;;;27.50;97.60;;;;;;5029227;28;19969;-72
2022/12/31 05:59:54;;;;;;;;;;;27.50;97.50;;;;;;5014674;28;20278;-72
2022/12/31 06:02:21;;;;;;;;;;;27.40;97.90;;;;;;5028889;28;19925;-72
2022/12/31 06:04:48;;;;;;;;;;;27.30;98.00;;;;;;5026800;28;19920;-72
2022/12/31 06:07:15;;;;;;;;;;;27.20;97.80;;;;;;5021981;28;19917;-71
2022/12/31 06:09:41;;;;;;;;;;;27.20;97.70;;;;;;5028971;28;19913;-69
2022/12/31 06:12:08;;;;;;;;;;;27.10;97.90;;;;;;5011716;28;20562;-71
2022/12/31 06:14:35;;;;;;;;;;;27.00;98.00;;;;;;5030326;28;20000;-71
2022/12/31 06:17:01;;;;;;;;;;;26.90;98.30;;;;;;5031496;28;20359;-72
2022/12/31 06:19:31;;;;;;;;;;;26.80;98.40;;;;;;5020416;28;19920;-72
2022/12/31 06:21:58;;;;;;;;;;;26.70;98.30;;;;;;5028010;28;19972;-72
2022/12/31 06:24:25;;;;;;;;;;;26.60;98.10;;;;;;5027819;28;19952;-72
2022/12/31 06:26:51;;;;;;;;;;;26.50;98.30;;;;;;5029495;28;19922;-71
2022/12/31 06:29:22;;;;;;;;;;;26.50;98.60;;;;;;5026548;28;20375;-71
2022/12/31 06:31:48;;;;;;;;;;;26.40;98.90;;;;;;5031089;28;20332;-73
2022/12/31 06:34:15;;;;;;;;;;;26.40;99.00;;;;;;5026037;28;20314;-72
2022/12/31 06:36:43;;;;;;;;;;;26.30;98.90;;;;;;5030377;28;19939;-72
2022/12/31 06:39:10;;;;;;;;;;;26.30;99.10;;;;;;5026028;28;20429;-72
2022/12/31 06:41:37;;;;;;;;;;;26.30;99.30;;;;;;5032107;28;19929;-72
2022/12/31 06:44:04;;;;;;;;;;;26.20;99.00;;;;;;5002414;28;20000;-71
2022/12/31 06:46:30;;;;;;;;;;;26.20;98.90;;;;;;5031448;28;19909;-72
2022/12/31 06:48:57;;;;;;;;;;;26.20;98.90;;;;;;5025708;28;19921;-72
2022/12/31 06:51:24;;;;;;;;;;;26.30;99.40;;;;;;5030313;28;19948;-72
2022/12/31 06:53:51;;;;;;;;;;;26.40;98.90;;;;;;5026702;28;20283;-72
2022/12/31 06:56:23;;;;;;;;;;;26.50;98.70;;;;;;5024851;28;19940;-72
2022/12/31 06:58:51;;;;;;;;;;;26.70;98.60;;;;;;5026551;28;19913;-72
2022/12/31 07:01:33;;;;;;;;;;;26.90;98.40;;;;;;5030204;28;19917;-73
2022/12/31 07:04:11;;;;;;;;;;;26.90;98.50;;;;;;5026211;28;19913;-72
2022/12/31 07:06:43;;;;;;;;;;;27.00;98.50;;;;;;5029167;28;19913;-72
2022/12/31 07:09:17;;;;;;;;;;;27.00;98.20;;;;;;5023708;28;19952;-72
2022/12/31 07:12:05;;;;;;;;;;;27.00;98.40;;;;;;5022430;28;19928;-72
2022/12/31 07:14:32;;;;;;;;;;;27.00;98.10;;;;;;5025144;28;20007;-70
2022/12/31 07:17:21;;;;;;;;;;;26.90;98.10;;;;;;5030373;28;20027;-73
2022/12/31 07:20:06;;;;;;;;;;;26.80;98.30;;;;;;5027605;28;19919;-72
2022/12/31 07:22:32;;;;;;;;;;;26.90;98.40;;;;;;5024784;28;19979;-72
2022/12/31 07:24:59;;;;;;;;;;;27.00;98.30;;;;;;5023343;28;19928;-71
2022/12/31 07:27:44;;;;;;;;;;;27.10;98.10;;;;;;5029054;28;20290;-71
2022/12/31 07:30:14;;;;;;;;;;;27.00;98.20;;;;;;5027847;28;19913;-71
2022/12/31 07:32:40;;;;;;;;;;;27.10;98.30;;;;;;5027334;28;19917;-72
2022/12/31 07:35:25;;;;;;;;;;;27.10;98.60;;;;;;5022653;28;19920;-72
2022/12/31 07:38:10;;;;;;;;;;;27.10;98.10;;;;;;5021669;28;20372;-72
2022/12/31 07:40:55;;;;;;;;;;;27.10;98.20;;;;;;5027706;28;19921;-71
2022/12/31 07:43:24;;;;;;;;;;;27.00;98.20;;;;;;5022298;28;19960;-71
2022/12/31 07:46:09;;;;;;;;;;;26.90;98.10;;;;;;5022165;28;20353;-72
2022/12/31 07:48:36;;;;;;;;;;;26.80;98.10;;;;;;5026133;28;19964;-72
2022/12/31 07:51:02;;;;;;;;;;;26.70;98.00;;;;;;5030453;28;19913;-71
2022/12/31 07:53:29;;;;;;;;;;;26.50;98.10;;;;;;5028622;28;19928;-71
2022/12/31 07:55:57;;;;;;;;;;;26.30;98.20;;;;;;5027198;28;20390;-72
2022/12/31 07:58:36;;;;;;;;;;;26.30;98.40;;;;;;5027059;28;20429;-71
2022/12/31 08:01:03;;;;;;;;;;;26.30;98.30;;;;;;5033514;28;19931;-71
2022/12/31 08:03:48;;;;;;;;;;;26.30;98.20;;;;;;5029931;28;20363;-71
2022/12/31 08:06:18;;;;;;;;;;;26.10;98.20;;;;;;5034480;28;19959;-71
2022/12/31 08:08:50;;;;;;;;;;;26.10;98.40;;;;;;5028403;28;19920;-72
2022/12/31 08:11:27;;;;;;;;;;;26.00;98.50;;;;;;5034686;28;19945;-71
2022/12/31 08:13:57;;;;;;;;;;;25.80;98.70;;;;;;5029102;28;19936;-71
2022/12/31 08:16:24;;;;;;;;;;;25.70;99.10;;;;;;5034831;28;19956;-72
2022/12/31 08:18:50;;;;;;;;;;;25.50;99.50;;;;;;5027243;28;19921;-74
2022/12/31 08:21:26;;;;;;;;;;;25.40;99.90;;;;;;5032728;28;19925;-71
2022/12/31 08:23:52;;;;;;;;;;;25.20;99.90;;;;;;5028709;28;20376;-71
2022/12/31 08:26:22;;;;;;;;;;;25.10;99.90;;;;;;5034426;28;20398;-71
2022/12/31 08:28:49;;;;;;;;;;;24.90;99.90;;;;;;5028604;28;19916;-71
2022/12/31 08:31:30;;;;;;;;;;;24.70;99.90;;;;;;5032540;28;19917;-71
2022/12/31 08:34:06;;;;;;;;;;;24.60;99.90;;;;;;5023177;28;19948;-71
2022/12/31 08:36:42;;;;;;;;;;;24.50;99.90;;;;;;5028171;28;19966;-70
2022/12/31 08:39:12;;;;;;;;;;;24.40;99.90;;;;;;5030413;28;19992;-72
2022/12/31 08:41:41;;;;;;;;;;;24.30;99.90;;;;;;5034019;28;19921;-72
2022/12/31 08:44:18;;;;;;;;;;;24.20;99.90;;;;;;5025176;28;19913;-71
2022/12/31 08:46:48;;;;;;;;;;;24.10;99.90;;;;;;5032777;28;20351;-72
2022/12/31 08:49:15;;;;;;;;;;;24.10;99.90;;;;;;5021774;28;19917;-73
2022/12/31 08:51:42;;;;;;;;;;;24.00;99.90;;;;;;5029041;28;19983;-70
2022/12/31 08:54:11;;;;;;;;;;;24.10;99.90;;;;;;5027934;28;19936;-71
2022/12/31 08:56:37;;;;;;;;;;;24.00;99.90;;;;;;5006708;28;19925;-72
2022/12/31 08:59:22;;;;;;;;;;;24.10;99.90;;;;;;5032301;28;20253;-72
2022/12/31 09:01:58;;;;;;;;;;;24.00;99.90;;;;;;5030251;28;20291;-71
2022/12/31 09:04:30;;;;;;;;;;;24.00;99.90;;;;;;5025937;28;19924;-72
2022/12/31 09:06:59;;;;;;;;;;;23.90;99.90;;;;;;5032092;28;19913;-73
2022/12/31 09:09:28;;;;;;;;;;;23.80;99.90;;;;;;5025651;28;19968;-72
2022/12/31 09:12:15;;;;;;;;;;;23.80;99.90;;;;;;5029145;28;19948;-72
2022/12/31 09:14:48;;;;;;;;;;;23.70;99.90;;;;;;5022183;28;19917;-72
2022/12/31 09:17:24;;;;;;;;;;;23.70;99.90;;;;;;5029565;28;19963;-72
2022/12/31 09:19:51;;;;;;;;;;;23.50;99.90;;;;;;5030591;28;19917;-72
2022/12/31 09:22:18;;;;;;;;;;;23.50;99.90;;;;;;5032083;28;20039;-72
2022/12/31 09:24:44;;;;;;;;;;;23.40;99.90;;;;;;5031601;28;20000;-71
2022/12/31 09:27:17;;;;;;;;;;;23.30;99.90;;;;;;5030304;28;19928;-72
2022/12/31 09:29:44;;;;;;;;;;;23.20;99.90;;;;;;5028685;28;19917;-72
2022/12/31 09:32:24;;;;;;;;;;;23.10;99.90;;;;;;5030741;28;19913;-72
2022/12/31 09:34:54;;;;;;;;;;;23.10;99.90;;;;;;5020989;28;20013;-72
2022/12/31 09:37:42;;;;;;;;;;;23.10;99.90;;;;;;5018938;28;20386;-72
2022/12/31 09:40:18;;;;;;;;;;;23.10;99.90;;;;;;5030414;28;19967;-72
2022/12/31 09:43:03;;;;;;;;;;;23.10;99.90;;;;;;5029982;28;19921;-71
2022/12/31 09:45:32;;;;;;;;;;;23.10;99.90;;;;;;5031185;28;19913;-71
2022/12/31 09:48:11;;;;;;;;;;;23.10;99.90;;;;;;5027030;28;20008;-72
2022/12/31 09:50:48;;;;;;;;;;;23.10;99.90;;;;;;5024816;28;20322;-73
2022/12/31 09:53:26;;;;;;;;;;;23.10;99.90;;;;;;5032058;28;20433;-73
2022/12/31 09:56:04;;;;;;;;;;;23.20;99.90;;;;;;5031350;28;19921;-71
2022/12/31 09:58:54;;;;;;;;;;;23.20;99.90;;;;;;5027482;28;20004;-72
2022/12/31 10:01:39;;;;;;;;;;;23.20;99.90;;;;;;5025192;28;20050;-73
2022/12/31 10:04:24;;;;;;;;;;;23.20;99.90;;;;;;5029888;28;19921;-73
2022/12/31 10:07:02;;;;;;;;;;;23.20;99.90;;;;;;5027180;28;19922;-73
2022/12/31 10:09:41;;;;;;;;;;;23.20;99.90;;;;;;5026279;28;20356;-72
2022/12/31 10:12:11;;;;;;;;;;;23.20;99.90;;;;;;5031404;28;19920;-72
2022/12/31 10:15:00;;;;;;;;;;;23.20;99.90;;;;;;5025414;28;19917;-72
2022/12/31 10:17:36;;;;;;;;;;;23.20;99.90;;;;;;5024753;28;19976;-72
2022/12/31 10:20:20;;;;;;;;;;;23.10;99.90;;;;;;5027543;28;19914;-72
2022/12/31 10:22:50;;;;;;;;;;;23.10;99.90;;;;;;5027485;28;19929;-72
2022/12/31 10:25:20;;;;;;;;;;;23.10;99.90;;;;;;5013436;28;19913;-72
2022/12/31 10:28:05;;;;;;;;;;;23.00;99.90;;;;;;5027405;28;19932;-73
2022/12/31 10:30:33;;;;;;;;;;;23.00;99.90;;;;;;5026786;28;19913;-72
2022/12/31 10:33:21;;;;;;;;;;;23.00;99.90;;;;;;5028056;28;19917;-72
2022/12/31 10:35:53;;;;;;;;;;;22.90;99.90;;;;;;5029696;28;20402;-72
2022/12/31 10:38:30;;;;;;;;;;;23.00;99.90;;;;;;5028278;28;19917;-73
2022/12/31 10:41:00;;;;;;;;;;;22.90;99.90;;;;;;5031306;28;19917;-73
2022/12/31 10:43:26;;;;;;;;;;;22.90;99.90;;;;;;5027011;28;19917;-72
2022/12/31 10:45:53;;;;;;;;;;;22.90;99.90;;;;;;5030323;28;19925;-71
2022/12/31 10:48:35;;;;;;;;;;;22.90;99.90;;;;;;5027308;28;19920;-72
2022/12/31 10:51:17;;;;;;;;;;;22.90;99.90;;;;;;5031133;28;20325;-72
2022/12/31 10:53:50;;;;;;;;;;;22.90;99.90;;;;;;5027976;28;19913;-73
2022/12/31 10:56:18;;;;;;;;;;;22.80;99.90;;;;;;5028322;28;19952;-73
2022/12/31 10:58:54;;;;;;;;;;;22.80;99.90;;;;;;5021149;28;19960;-70
2022/12/31 11:01:35;;;;;;;;;;;22.80;99.90;;;;;;5013363;28;19913;-71
2022/12/31 11:04:08;;;;;;;;;;;22.80;99.90;;;;;;5021762;28;19961;-72
2022/12/31 11:06:34;;;;;;;;;;;22.80;99.90;;;;;;5024939;28;19929;-71
2022/12/31 11:09:16;;;;;;;;;;;22.80;99.90;;;;;;5025919;28;19936;-71
2022/12/31 11:11:49;;;;;;;;;;;22.70;99.90;;;;;;5011699;28;20005;-72
2022/12/31 11:14:37;;;;;;;;;;;22.70;99.90;;;;;;5015132;28;19924;-72
2022/12/31 11:17:04;;;;;;;;;;;22.70;99.90;;;;;;5030436;28;19921;-72
2022/12/31 11:19:37;;;;;;;;;;;22.70;99.90;;;;;;5028775;28;19920;-71
2022/12/31 11:22:09;;;;;;;;;;;22.60;99.90;;;;;;5030333;28;20296;-74
2022/12/31 11:24:58;;;;;;;;;;;22.60;99.90;;;;;;5027192;28;19913;-71
2022/12/31 11:27:25;;;;;;;;;;;22.60;99.90;;;;;;5017343;28;20433;-71
2022/12/31 11:30:04;;;;;;;;;;;22.60;99.90;;;;;;5026343;28;19956;-72
2022/12/31 11:32:31;;;;;;;;;;;22.50;99.90;;;;;;5024552;28;20059;-71
2022/12/31 11:35:07;;;;;;;;;;;22.50;99.90;;;;;;5026307;28;20367;-72
2022/12/31 11:37:57;;;;;;;;;;;22.50;99.90;;;;;;5026924;28;20001;-72
2022/12/31 11:40:24;;;;;;;;;;;22.40;99.90;;;;;;5023634;28;19917;-71
2022/12/31 11:43:14;;;;;;;;;;;22.50;99.90;;;;;;5024195;28;19983;-72
2022/12/31 11:46:04;;;;;;;;;;;22.50;99.90;;;;;;5002163;28;20378;-73
2022/12/31 11:48:42;;;;;;;;;;;22.40;99.90;;;;;;5020086;28;19913;-72
2022/12/31 11:51:26;;;;;;;;;;;22.40;99.90;;;;;;5030847;28;19913;-71
2022/12/31 11:53:56;;;;;;;;;;;22.40;99.90;;;;;;5026001;28;20051;-72
2022/12/31 11:56:24;;;;;;;;;;;22.40;99.90;;;;;;5024969;28;19939;-73
2022/12/31 11:58:52;;;;;;;;;;;22.40;99.90;;;;;;5021204;28;19921;-71
2022/12/31 12:01:40;;;;;;;;;;;22.40;99.90;;;;;;5027234;28;19948;-71
2022/12/31 12:04:08;;;;;;;;;;;22.40;99.90;;;;;;5028128;28;20422;-73
2022/12/31 12:06:35;;;;;;;;;;;22.40;99.90;;;;;;5025887;28;19922;-72
2022/12/31 12:09:06;;;;;;;;;;;22.30;99.90;;;;;;5024980;28;19919;-73
2022/12/31 12:11:38;;;;;;;;;;;22.30;99.90;;;;;;5011936;28;19916;-71
2022/12/31 12:14:20;;;;;;;;;;;22.30;99.90;;;;;;5027590;28;20375;-72
2022/12/31 12:16:52;;;;;;;;;;;22.40;99.90;;;;;;5026524;28;20377;-74
2022/12/31 12:19:18;;;;;;;;;;;22.30;99.90;;;;;;5028570;28;19952;-72
2022/12/31 12:21:46;;;;;;;;;;;22.30;99.90;;;;;;5007482;28;20436;-73
2022/12/31 12:24:25;;;;;;;;;;;22.40;99.90;;;;;;5010946;28;19952;-73
2022/12/31 12:26:51;;;;;;;;;;;22.40;99.90;;;;;;5032623;28;19916;-72
2022/12/31 12:29:28;;;;;;;;;;;22.30;99.90;;;;;;5027017;28;20470;-72
2022/12/31 12:31:56;;;;;;;;;;;22.30;99.90;;;;;;5027638;28;19987;-72
2022/12/31 12:34:43;;;;;;;;;;;22.30;99.90;;;;;;5020532;28;19914;-72
2022/12/31 12:37:22;;;;;;;;;;;22.30;99.90;;;;;;5013517;28;19921;-72
2022/12/31 12:39:54;;;;;;;;;;;22.30;99.90;;;;;;5025072;28;19991;-72
2022/12/31 12:42:30;;;;;;;;;;;22.30;99.90;;;;;;5025717;28;20019;-72
2022/12/31 12:45:07;;;;;;;;;;;22.20;99.90;;;;;;5033464;28;20390;-73
2022/12/31 12:47:34;;;;;;;;;;;22.30;99.90;;;;;;5021498;28;20283;-70
2022/12/31 12:50:00;;;;;;;;;;;22.30;99.90;;;;;;5026245;28;19920;-71
2022/12/31 12:52:39;;;;;;;;;;;22.30;99.90;;;;;;5033481;28;19922;-72
2022/12/31 12:55:09;;;;;;;;;;;22.30;99.90;;;;;;5026106;28;19909;-72
2022/12/31 12:57:38;;;;;;;;;;;22.40;99.90;;;;;;5029982;28;19913;-72
2022/12/31 13:00:34;;;;;;;;;;;22.40;99.90;;;;;;5024369;28;19910;-72
2022/12/31 13:03:12;;;;;;;;;;;22.40;99.90;;;;;;4975277;28;19922;-72
2022/12/31 13:05:52;;;;;;;;;;;22.40;99.90;;;;;;5034917;28;19964;-72
2022/12/31 13:08:18;;;;;;;;;;;22.40;99.90;;;;;;5035616;28;20020;-71
2022/12/31 13:10:54;;;;;;;;;;;22.40;99.90;;;;;;5032830;28;19983;-72
2022/12/31 13:13:36;;;;;;;;;;;22.40;99.90;;;;;;5036143;28;19917;-72
2022/12/31 13:16:25;;;;;;;;;;;22.30;99.90;;;;;;5032526;28;19909;-72
2022/12/31 13:19:07;;;;;;;;;;;22.30;99.90;;;;;;5017933;28;20000;-72
2022/12/31 13:21:34;;;;;;;;;;;22.30;99.90;;;;;;5032042;28;19925;-73
2022/12/31 13:24:11;;;;;;;;;;;22.30;99.90;;;;;;5035629;28;19913;-72
2022/12/31 13:26:45;;;;;;;;;;;22.30;99.90;;;;;;5025731;28;20257;-73
2022/12/31 13:29:15;;;;;;;;;;;22.20;99.90;;;;;;5026756;28;21528;-73
2022/12/31 13:31:42;;;;;;;;;;;22.10;99.90;;;;;;5030931;28;19966;-72
2022/12/31 13:34:21;;;;;;;;;;;22.20;99.90;;;;;;5023622;28;19944;-72
2022/12/31 13:36:49;;;;;;;;;;;22.10;99.90;;;;;;5032324;28;20359;-72
2022/12/31 13:39:37;;;;;;;;;;;22.10;99.90;;;;;;5029570;28;20249;-72
2022/12/31 13:42:07;;;;;;;;;;;22.10;99.90;;;;;;5034581;28;20761;-71
2022/12/31 13:44:36;;;;;;;;;;;22.10;99.90;;;;;;5021899;28;19920;-70
2022/12/31 13:47:12;;;;;;;;;;;22.00;99.90;;;;;;5036507;28;19920;-72
2022/12/31 13:49:56;;;;;;;;;;;21.90;99.90;;;;;;5029742;28;19919;-70
2022/12/31 13:52:40;;;;;;;;;;;21.90;99.90;;;;;;5012819;28;20470;-71
2022/12/31 13:55:14;;;;;;;;;;;21.90;99.90;;;;;;5025357;28;19921;-71
2022/12/31 13:57:53;;;;;;;;;;;21.80;99.90;;;;;;5029836;28;19913;-70
2022/12/31 14:00:23;;;;;;;;;;;21.80;99.90;;;;;;5028230;28;20000;-71
2022/12/31 14:02:52;;;;;;;;;;;21.80;99.90;;;;;;5025574;28;19936;-71
2022/12/31 14:05:31;;;;;;;;;;;21.70;99.90;;;;;;5032170;28;20245;-71
2022/12/31 14:07:59;;;;;;;;;;;21.60;99.90;;;;;;5034154;28;19920;-70
2022/12/31 14:10:31;;;;;;;;;;;21.50;99.90;;;;;;5031642;28;19921;-71
2022/12/31 14:13:06;;;;;;;;;;;21.40;99.90;;;;;;5027997;28;19924;-70
2022/12/31 14:15:51;;;;;;;;;;;21.40;99.90;;;;;;5038363;28;19919;-71
2022/12/31 14:18:32;;;;;;;;;;;21.30;99.90;;;;;;5030321;28;20071;-70
2022/12/31 14:21:05;;;;;;;;;;;21.20;99.90;;;;;;5035821;28;19924;-71
2022/12/31 14:23:34;;;;;;;;;;;21.20;99.90;;;;;;5033482;28;20486;-71
2022/12/31 14:26:12;;;;;;;;;;;21.10;99.90;;;;;;5033065;28;19913;-71
2022/12/31 14:28:52;;;;;;;;;;;21.00;99.90;;;;;;5027483;28;20371;-71
2022/12/31 14:31:26;;;;;;;;;;;21.00;99.90;;;;;;5031732;28;19913;-71
2022/12/31 14:34:08;;;;;;;;;;;21.00;99.90;;;;;;5029655;28;19928;-71
2022/12/31 14:36:40;;;;;;;;;;;20.90;99.90;;;;;;5028317;28;19921;-71
2022/12/31 14:39:25;;;;;;;;;;;20.90;99.90;;;;;;5026744;28;20292;-71
2022/12/31 14:41:51;;;;;;;;;;;20.90;99.90;;;;;;5013595;28;19971;-71
2022/12/31 14:44:24;;;;;;;;;;;20.80;99.90;;;;;;5029719;28;20332;-71
2022/12/31 14:47:02;;;;;;;;;;;20.80;99.90;;;;;;5032094;28;19909;-70
2022/12/31 14:49:44;;;;;;;;;;;20.80;99.90;;;;;;5025872;28;19963;-70
2022/12/31 14:52:25;;;;;;;;;;;20.70;99.90;;;;;;5038193;28;19913;-72
2022/12/31 14:55:13;;;;;;;;;;;20.70;99.90;;;;;;5028088;28;19920;-70